Latest Weather Observations for Archerfield

IDQ60901

Issued at 8:21 am EST Sunday 29 March 2015 (issued every 10 minutes, with the page automatically refreshed every 10 minutes)

About weather observations | Map of Brisbane area stations | Latest observations for Brisbane area | Other Formats
Station Details ID: 040211 Name: ARCHERFIELD AIRPORT Lat: -27.57 Lon: 153.01 Height: 12.5 m
Data from the previous 72 hours. | See also: Recent months at Archerfield
Date/Time
EST
Tmp

°C
App
Tmp
°C
Dew
Point
°C
Rel
Hum
%
Delta-T

°C
Wind Press
QNH
hPa
Press
MSL
hPa
Rain
since
9 am
mm
Dir
 
Spd
km/h
Gust
km/h
Spd
kts
Gust
kts
29/08:00am 22.7 25.0 18.5 77 2.6 WSW 4 7 2 4 1023.1 1023.0 1.0
29/07:30am 22.8 24.7 19.0 79 2.4 SSE 7 11 4 6 1022.6 1022.5 1.0
29/07:00am 21.5 23.3 18.7 84 1.8 S 7 9 4 5 1022.1 1022.0 1.0
29/06:00am 20.1 22.6 18.2 89 1.2 SW 2 7 1 4 1021.6 1021.5 1.0
29/05:30am 19.9 22.5 18.4 91 0.9 S 2 9 1 5 1021.1 1021.0 1.0
29/05:00am 19.8 21.8 17.9 89 1.2 SSE 4 7 2 4 1020.6 1020.5 1.0
29/04:30am 20.3 22.0 18.4 89 1.2 SSE 7 9 4 5 1020.4 1020.3 1.0
29/04:00am 20.6 21.9 18.4 87 1.4 SSE 9 11 5 6 1020.1 1020.0 1.0
29/03:30am 20.4 21.3 18.3 88 1.3 SSE 11 13 6 7 1020.0 1019.9 1.0
29/03:00am 19.9 21.3 17.9 88 1.2 S 7 9 4 5 1019.8 1019.7 1.0
29/02:30am 20.9 22.4 17.7 82 2.0 E 6 7 3 4 1020.0 1019.9 1.0
29/02:00am 21.1 22.2 17.9 82 2.0 SE 9 13 5 7 1020.3 1020.2 1.0
29/01:30am 21.8 23.0 18.2 80 2.2 SSE 9 11 5 6 1020.8 1020.7 1.0
29/01:00am 22.3 24.1 18.3 78 2.5 SE 6 9 3 5 1020.8 1020.7 1.0
29/12:30am 22.1 23.5 17.7 76 2.7 ENE 7 9 4 5 1020.8 1020.7 1.0
 
Date/Time
EST
Tmp

°C
App
Tmp
°C
Dew
Point
°C
Rel
Hum
%
Delta-T

°C
Wind Press
QNH
hPa
Press
MSL
hPa
Rain
since
9 am
mm
Dir
 
Spd
km/h
Gust
km/h
Spd
kts
Gust
kts
28/11:30pm 21.7 22.8 18.1 80 2.2 SSE 9 9 5 5 1021.4 1021.3 1.0
28/11:00pm 21.8 23.9 18.0 79 2.4 SE 4 7 2 4 1021.7 1021.6 1.0
28/10:57pm 21.7 24.2 18.1 80 2.2 SE 2 7 1 4 1021.7 1021.6 1.0
28/10:39pm 21.1 23.6 17.3 79 2.3 CALM 0 4 0 2 1021.7 1021.6 1.0
28/10:30pm 20.7 22.2 16.7 78 2.4 SE 4 6 2 3 1021.6 1021.5 1.0
28/10:00pm 21.5 22.6 17.1 76 2.7 SE 7 9 4 5 1021.5 1021.4 1.0
28/09:30pm 22.2 24.6 16.9 72 3.2 CALM 0 0 0 0 1021.6 1021.5 1.0
28/09:00pm 22.7 23.8 16.7 69 3.7 ENE 6 9 3 5 1021.6 1021.5 1.0
28/08:30pm 22.7 23.7 16.9 70 3.6 NE 7 9 4 5 1021.5 1021.4 1.0
28/08:00pm 23.4 24.1 16.2 64 4.4 ENE 7 11 4 6 1021.3 1021.2 1.0
28/07:30pm 23.8 24.1 16.1 62 4.7 ENE 9 13 5 7 1020.9 1020.8 1.0
28/07:00pm 23.9 23.6 15.4 59 5.1 ENE 11 15 6 8 1020.4 1020.3 1.0
28/06:30pm 23.8 22.9 14.8 57 5.4 ENE 13 17 7 9 1020.0 1019.9 1.0
28/06:00pm 24.3 22.9 14.4 54 5.8 E 15 22 8 12 1019.6 1019.5 1.0
28/05:30pm 25.0 22.7 14.2 51 6.4 ENE 19 24 10 13 1019.3 1019.2 1.0
28/05:00pm 25.8 23.0 14.3 49 6.8 ENE 22 30 12 16 1019.2 1019.1 1.0
28/04:30pm 26.6 24.3 14.7 48 7.1 ENE 20 26 11 14 1018.9 1018.8 1.0
28/04:00pm 27.1 24.4 14.5 46 7.5 E 22 28 12 15 1018.7 1018.6 1.0
28/03:30pm 27.9 26.4 16.2 49 7.2 ENE 19 28 10 15 1018.6 1018.5 1.0
28/03:00pm 27.8 26.3 16.4 50 7.1 E 19 24 10 13 1018.5 1018.4 1.0
28/02:30pm 27.9 27.2 16.5 50 7.1 E 15 20 8 11 1018.8 1018.7 1.0
28/02:00pm 27.2 26.0 17.1 54 6.3 E 19 30 10 16 1018.9 1018.8 1.0
28/01:30pm 27.0 26.7 18.3 59 5.5 ESE 17 22 9 12 1019.3 1019.2 1.0
28/01:00pm 26.5 25.9 18.4 61 5.1 ESE 19 24 10 13 1019.4 1019.3 1.0
28/12:30pm 26.4 25.9 19.0 63 4.7 E 20 28 11 15 1019.8 1019.7 1.0
28/12:00pm 26.5 26.4 19.6 66 4.5 ENE 19 24 10 13 1020.1 1020.0 1.0
28/11:30am 26.9 28.3 21.0 70 3.9 E 15 20 8 11 1020.3 1020.2 1.0
28/11:00am 25.1 27.1 20.8 77 2.8 ENE 11 17 6 9 1021.0 1020.9 1.0
28/10:30am 24.8 26.2 20.3 76 2.9 ESE 13 19 7 10 1021.3 1021.2 0.2
28/10:00am 25.8 25.8 19.7 69 3.9 ESE 19 28 10 15 1021.2 1021.1 0.0
28/09:30am 26.1 27.7 20.0 69 4.0 SE 11 22 6 12 1021.1 1021.0 0.0
28/09:00am 25.0 27.2 20.5 76 2.9 SSE 9 13 5 7 1021.0 1020.9 0.0
28/08:30am 24.1 26.1 20.0 78 2.7 S 9 13 5 7 1021.0 1020.9 0.0
28/08:00am 23.1 25.5 20.1 83 1.9 S 7 11 4 6 1020.7 1020.6 0.0
28/07:30am 22.9 25.1 19.7 82 2.1 SSE 7 9 4 5 1020.3 1020.2 0.0
28/07:00am 22.8 25.4 20.1 85 1.7 S 6 7 3 4 1019.7 1019.6 0.0
28/06:30am 21.8 24.0 19.7 88 1.3 SSW 7 9 4 5 1019.4 1019.3 0.0
28/06:00am 22.0 23.5 19.7 87 1.5 SSE 11 15 6 8 1019.0 1018.9 0.0
28/05:30am 21.9 24.4 19.8 88 1.3 S 6 7 3 4 1018.9 1018.8 0.0
28/05:00am 21.9 23.7 19.6 87 1.5 S 9 13 5 7 1018.5 1018.4 0.0
28/04:30am 22.2 24.1 19.7 86 1.6 S 9 13 5 7 1018.3 1018.2 0.0
28/04:00am 22.3 25.9 19.8 86 1.6 CALM 0 6 0 3 1018.1 1018.0 0.0
28/03:30am 22.2 24.6 20.1 88 1.4 SSW 7 7 4 4 1018.0 1017.9 0.0
28/03:00am 22.1 24.6 20.2 89 1.2 SSW 7 9 4 5 1017.8 1017.7 0.0
28/02:30am 22.2 25.0 20.5 90 1.1 SSW 6 7 3 4 1017.9 1017.8 0.0
28/02:00am 21.9 25.6 20.0 89 1.2 CALM 0 0 0 0 1017.9 1017.8 0.0
28/01:30am 22.6 25.2 20.5 88 1.4 SSE 7 9 4 5 1018.0 1017.9 0.0
28/01:00am 22.3 25.1 20.4 89 1.2 SSW 6 6 3 3 1018.3 1018.2 0.0
28/12:30am 22.7 26.4 20.0 85 1.7 CALM 0 7 0 4 1018.4 1018.3 0.0
28/12:00am 22.9 26.7 20.1 84 1.8 CALM 0 0 0 0 1018.6 1018.5 0.0
 
Date/Time
EST
Tmp

°C
App
Tmp
°C
Dew
Point
°C
Rel
Hum
%
Delta-T

°C
Wind Press
QNH
hPa
Press
MSL
hPa
Rain
since
9 am
mm
Dir
 
Spd
km/h
Gust
km/h
Spd
kts
Gust
kts
27/11:30pm 23.5 27.2 20.0 81 2.3 CALM 0 0 0 0 1018.8 1018.7 0.0
27/11:00pm 23.7 26.1 20.0 80 2.4 ESE 7 9 4 5 1018.9 1018.8 0.0
27/10:30pm 24.0 26.1 20.1 79 2.5 SSE 9 11 5 6 1019.1 1019.0 0.0
27/10:00pm 24.0 26.7 20.3 80 2.4 SE 6 9 3 5 1019.2 1019.1 0.0
27/09:30pm 24.1 26.2 20.2 79 2.5 SE 9 13 5 7 1019.2 1019.1 0.0
27/09:00pm 24.2 26.1 20.5 80 2.4 ESE 11 17 6 9 1019.3 1019.2 0.0
27/08:30pm 24.3 26.1 20.4 79 2.5 ESE 11 17 6 9 1019.2 1019.1 0.0
27/08:00pm 24.3 25.7 20.4 79 2.5 E 13 19 7 10 1018.9 1018.8 0.0
27/07:30pm 24.4 26.3 20.5 79 2.5 E 11 17 6 9 1018.6 1018.5 0.0
27/07:00pm 24.6 26.2 20.7 79 2.5 E 13 20 7 11 1018.1 1018.0 0.0
27/06:30pm 24.9 25.9 20.2 75 3.1 E 15 22 8 12 1017.7 1017.6 0.0
27/06:00pm 25.2 25.0 19.8 72 3.5 E 20 30 11 16 1017.2 1017.1 0.0
27/05:30pm 25.9 25.1 19.3 67 4.2 E 22 32 12 17 1017.1 1017.0 0.0
27/05:00pm 26.6 26.5 20.0 67 4.3 E 20 32 11 17 1016.7 1016.6 0.0
27/04:30pm 27.3 27.2 19.9 64 4.8 E 20 28 11 15 1016.3 1016.2 0.0
27/04:00pm 27.4 27.4 20.2 65 4.7 ENE 20 28 11 15 1016.1 1016.0 0.0
27/03:30pm 28.2 28.4 20.5 63 5.1 ENE 20 24 11 13 1015.9 1015.8 0.0
27/03:00pm 29.3 30.1 21.3 62 5.3 ENE 19 26 10 14 1015.7 1015.6 0.0
27/02:30pm 28.6 29.9 20.9 63 5.1 ENE 15 20 8 11 1015.8 1015.7 0.0
27/02:00pm 29.3 31.1 21.8 64 5.0 ENE 15 20 8 11 1015.9 1015.8 0.0
27/01:30pm 28.9 30.3 21.1 62 5.2 ESE 15 22 8 12 1016.3 1016.2 0.0
27/01:00pm 30.5 33.0 21.8 59 5.9 ENE 11 19 6 10 1016.6 1016.5 0.0
27/12:30pm 30.0 33.6 22.4 63 5.2 S 7 13 4 7 1017.0 1016.9 0.0
27/12:00pm 29.1 31.4 21.3 62 5.2 SE 11 17 6 9 1017.5 1017.4 0.0
27/11:30am 28.5 30.9 20.8 63 5.1 SW 9 15 5 8 1018.0 1017.9 0.0
27/11:00am 28.3 30.2 20.6 63 5.1 SW 11 17 6 9 1018.4 1018.3 0.0
27/10:30am 27.6 29.7 20.9 67 4.4 WSW 11 17 6 9 1018.7 1018.6 0.0
27/10:00am 26.5 28.4 21.3 73 3.4 SW 13 17 7 9 1018.9 1018.8 0.0
27/09:30am 26.1 27.0 20.9 73 3.4 WSW 17 20 9 11 1019.0 1018.9 0.0
27/09:00am 26.2 27.1 20.1 69 4.0 WSW 15 20 8 11 1018.9 1018.8 0.0
27/08:30am 25.8 27.4 20.8 74 3.3 WSW 13 17 7 9 1018.8 1018.7 0.0
27/08:00am 25.0 28.2 21.7 82 2.2 WSW 7 11 4 6 1018.6 1018.5 0.0
27/07:30am 23.7 27.1 22.0 90 1.1 SSW 7 7 4 4 1018.5 1018.4 0.0
27/07:00am 23.1 26.6 21.9 93 0.8 SSW 6 7 3 4 1017.9 1017.8 0.0
27/06:30am 22.8 26.3 21.8 94 0.7 SSW 6 7 3 4 1017.5 1017.4 0.0
27/06:00am 22.4 25.7 21.4 94 0.7 SW 6 7 3 4 1017.2 1017.1 0.0
27/05:30am 22.3 25.3 21.3 94 0.7 WSW 7 7 4 4 1016.9 1016.8 0.0
27/05:00am 22.2 26.5 21.2 94 0.7 CALM 0 0 0 0 1016.5 1016.4 0.0
27/04:30am 22.3 26.5 20.9 92 0.9 CALM 0 0 0 0 1016.2 1016.1 0.0
27/04:00am 22.3 26.6 21.1 93 0.8 CALM 0 0 0 0 1016.3 1016.2 0.0
27/03:30am 22.6 26.9 21.2 92 0.9 CALM 0 0 0 0 1016.3 1016.2 0.0
27/03:00am 22.7 27.0 21.2 91 1.0 CALM 0 6 0 3 1016.2 1016.1 0.0
27/02:30am 22.9 26.2 21.4 91 1.0 SSW 6 7 3 4 1016.4 1016.3 0.0
27/02:00am 23.2 27.6 21.3 89 1.2 CALM 0 0 0 0 1016.5 1016.4 0.0
27/01:30am 23.5 27.9 21.4 88 1.4 CALM 0 0 0 0 1016.7 1016.6 0.0
27/01:00am 23.6 27.0 21.7 89 1.3 SSW 6 9 3 5 1017.1 1017.0 0.0
27/12:30am 23.7 27.1 21.6 88 1.4 SSW 6 9 3 5 1017.3 1017.2 0.0
27/12:00am 23.6 28.3 21.9 90 1.1 CALM 0 6 0 3 1017.5 1017.4 0.0
 
Date/Time
EST
Tmp

°C
App
Tmp
°C
Dew
Point
°C
Rel
Hum
%
Delta-T

°C
Wind Press
QNH
hPa
Press
MSL
hPa
Rain
since
9 am
mm
Dir
 
Spd
km/h
Gust
km/h
Spd
kts
Gust
kts
26/11:30pm 23.6 26.9 21.5 88 1.4 WSW 6 7 3 4 1017.6 1017.5 0.0
26/11:00pm 23.3 27.7 21.4 89 1.2 CALM 0 0 0 0 1017.7 1017.6 0.0
26/10:30pm 23.8 28.2 21.3 86 1.6 CALM 0 0 0 0 1017.7 1017.6 0.0
26/10:00pm 24.0 26.9 21.7 87 1.5 W 9 13 5 7 1018.0 1017.9 0.0
26/09:30pm 24.3 27.3 22.0 87 1.5 WSW 9 13 5 7 1017.8 1017.7 0.0
26/09:00pm 25.0 28.0 22.7 87 1.5 NW 11 15 6 8 1017.9 1017.8 0.0
26/08:30pm 25.5 28.8 22.6 84 2.0 NNE 9 11 5 6 1017.7 1017.6 0.0
26/08:00pm 26.2 29.5 22.5 80 2.5 NNW 9 13 5 7 1017.8 1017.7 0.0
26/07:30pm 26.3 27.9 22.2 78 2.8 NNE 17 20 9 11 1017.3 1017.2 0.0
26/07:00pm 26.5 30.0 22.1 77 2.9 NNE 7 19 4 10 1016.6 1016.5 0.0
26/06:30pm 26.4 27.5 22.0 77 2.9 NNE 19 24 10 13 1015.8 1015.7 0.0
26/06:00pm 26.6 28.1 22.0 76 3.1 NNE 17 22 9 12 1016.7 1016.6 0.0
26/05:30pm 26.5 26.8 21.5 74 3.3 NNE 22 28 12 15 1015.6 1015.5 0.0
26/05:00pm 26.8 27.0 21.3 72 3.6 NNE 22 30 12 16 1015.1 1015.0 0.0
26/04:30pm 27.4 27.3 21.4 70 4.0 NNE 24 32 13 17 1014.7 1014.6 0.0
26/04:00pm 28.1 28.6 21.9 69 4.2 NNE 22 33 12 18 1014.5 1014.4 0.0
26/03:30pm 29.2 29.1 21.4 63 5.2 NNE 24 30 13 16 1014.8 1014.7 0.0
26/03:00pm 29.9 30.8 22.6 65 5.0 NNE 22 28 12 15 1014.8 1014.7 0.0
26/02:30pm 30.2 31.5 22.6 63 5.2 NNE 20 28 11 15 1015.0 1014.9 0.0
26/02:00pm 30.3 31.9 23.2 65 4.9 NNE 20 30 11 16 1015.3 1015.2 0.0
26/01:30pm 30.1 31.4 23.3 67 4.7 NNE 22 30 12 16 1015.7 1015.6 0.0
26/01:00pm 29.8 31.3 22.0 63 5.3 NNE 17 22 9 12 1016.1 1016.0 0.0
26/12:30pm 30.1 31.6 22.0 62 5.5 NNE 17 26 9 14 1016.6 1016.5 0.0
26/12:00pm 29.9 32.5 22.6 65 5.0 NE 13 20 7 11 1016.9 1016.8 0.0
26/11:30am 30.3 32.6 23.5 67 4.7 NNE 17 26 9 14 1017.3 1017.2 0.0
26/11:00am 29.2 31.4 21.9 64 4.9 NNE 13 22 7 12 1017.5 1017.4 0.0
26/10:30am 29.4 32.6 23.1 69 4.3 N 11 17 6 9 1018.0 1017.9 0.0
26/10:00am 28.7 32.1 22.7 70 4.1 N 9 15 5 8 1018.2 1018.1 0.0
26/09:30am 27.8 31.1 22.5 73 3.6 NNW 9 13 5 7 1018.3 1018.2 0.0
26/09:00am 27.2 29.4 21.9 73 3.5 N 13 17 7 9 1018.2 1018.1 45.2
26/08:30am 26.5 29.2 22.8 80 2.5 N 13 15 7 8 1017.9 1017.8 45.2

Latest Capital City Observations: Canberra | Sydney | Melbourne | Brisbane | Adelaide | Perth | Hobart | Darwin

Other Formats:

Comma delimited format used in spreadsheet applications
http://www.bom.gov.au/fwo/IDQ60901/IDQ60901.94575.axf

JavaScript Object Notation format (JSON) in row-major order
http://www.bom.gov.au/fwo/IDQ60901/IDQ60901.94575.json